sensor_id;sensor_type;location;lat;lon;timestamp;temperature;humidity
2931;DHT22;1475;51.454;7.150;2022-08-11T00:01:44;21.10;99.90
2931;DHT22;1475;51.454;7.150;2022-08-11T00:04:13;19.90;99.90
2931;DHT22;1475;51.454;7.150;2022-08-11T00:06:42;20.60;99.90
2931;DHT22;1475;51.454;7.150;2022-08-11T00:09:16;20.00;99.90
2931;DHT22;1475;51.454;7.150;2022-08-11T00:11:50;20.50;99.90
2931;DHT22;1475;51.454;7.150;2022-08-11T00:14:19;19.70;99.90
2931;DHT22;1475;51.454;7.150;2022-08-11T00:16:54;20.20;99.90
2931;DHT22;1475;51.454;7.150;2022-08-11T00:19:24;19.60;99.90
2931;DHT22;1475;51.454;7.150;2022-08-11T00:21:53;19.60;99.90
2931;DHT22;1475;51.454;7.150;2022-08-11T00:24:21;19.50;99.90
2931;DHT22;1475;51.454;7.150;2022-08-11T00:26:53;19.40;99.90
2931;DHT22;1475;51.454;7.150;2022-08-11T00:29:20;20.10;99.90
2931;DHT22;1475;51.454;7.150;2022-08-11T00:31:50;19.30;99.90
2931;DHT22;1475;51.454;7.150;2022-08-11T00:34:20;19.30;99.90
2931;DHT22;1475;51.454;7.150;2022-08-11T00:36:50;19.20;99.90
2931;DHT22;1475;51.454;7.150;2022-08-11T00:39:22;19.10;99.90
2931;DHT22;1475;51.454;7.150;2022-08-11T00:42:05;19.00;99.90
2931;DHT22;1475;51.454;7.150;2022-08-11T00:44:50;19.00;99.90
2931;DHT22;1475;51.454;7.150;2022-08-11T00:47:26;18.80;99.90
2931;DHT22;1475;51.454;7.150;2022-08-11T00:50:04;18.80;99.90
2931;DHT22;1475;51.454;7.150;2022-08-11T00:53:02;19.20;99.90
2931;DHT22;1475;51.454;7.150;2022-08-11T01:02:09;18.60;99.90
2931;DHT22;1475;51.454;7.150;2022-08-11T01:05:02;17.90;99.90
2931;DHT22;1475;51.454;7.150;2022-08-11T01:08:14;18.40;99.90
2931;DHT22;1475;51.454;7.150;2022-08-11T01:20:03;18.10;99.90
2931;DHT22;1475;51.454;7.150;2022-08-11T01:23:13;19.60;99.90
2931;DHT22;1475;51.454;7.150;2022-08-11T01:29:39;18.00;99.90
2931;DHT22;1475;51.454;7.150;2022-08-11T01:35:53;18.00;99.90
2931;DHT22;1475;51.454;7.150;2022-08-11T01:38:54;18.90;99.90
2931;DHT22;1475;51.454;7.150;2022-08-11T01:41:44;18.40;99.90
2931;DHT22;1475;51.454;7.150;2022-08-11T01:47:44;17.90;99.90
2931;DHT22;1475;51.454;7.150;2022-08-11T01:50:26;17.90;99.90
2931;DHT22;1475;51.454;7.150;2022-08-11T01:53:07;17.90;99.90
2931;DHT22;1475;51.454;7.150;2022-08-11T01:55:42;17.80;99.90
2931;DHT22;1475;51.454;7.150;2022-08-11T01:58:19;17.80;99.90
2931;DHT22;1475;51.454;7.150;2022-08-11T02:00:53;17.70;99.90
2931;DHT22;1475;51.454;7.150;2022-08-11T02:03:26;17.70;99.90
2931;DHT22;1475;51.454;7.150;2022-08-11T02:06:03;17.60;99.90
2931;DHT22;1475;51.454;7.150;2022-08-11T02:09:08;17.60;99.90
2931;DHT22;1475;51.454;7.150;2022-08-11T02:11:39;17.50;99.90
2931;DHT22;1475;51.454;7.150;2022-08-11T02:14:15;17.40;99.90
2931;DHT22;1475;51.454;7.150;2022-08-11T02:17:03;17.40;99.90
2931;DHT22;1475;51.454;7.150;2022-08-11T02:19:39;17.40;99.90
2931;DHT22;1475;51.454;7.150;2022-08-11T02:22:29;17.30;99.90
2931;DHT22;1475;51.454;7.150;2022-08-11T02:25:23;17.20;99.90
2931;DHT22;1475;51.454;7.150;2022-08-11T02:28:00;17.20;99.90
2931;DHT22;1475;51.454;7.150;2022-08-11T02:30:34;17.20;99.90
2931;DHT22;1475;51.454;7.150;2022-08-11T02:33:13;17.10;99.90
2931;DHT22;1475;51.454;7.150;2022-08-11T02:35:58;17.10;99.90
2931;DHT22;1475;51.454;7.150;2022-08-11T02:38:30;17.10;99.90
2931;DHT22;1475;51.454;7.150;2022-08-11T02:41:07;17.10;99.90
2931;DHT22;1475;51.454;7.150;2022-08-11T02:44:09;17.10;99.90
2931;DHT22;1475;51.454;7.150;2022-08-11T02:46:47;17.10;99.90
2931;DHT22;1475;51.454;7.150;2022-08-11T02:49:26;17.00;99.90
2931;DHT22;1475;51.454;7.150;2022-08-11T02:52:18;17.00;99.90
2931;DHT22;1475;51.454;7.150;2022-08-11T02:54:52;17.00;99.90
2931;DHT22;1475;51.454;7.150;2022-08-11T02:57:34;17.00;99.90
2931;DHT22;1475;51.454;7.150;2022-08-11T03:00:06;16.90;99.90
2931;DHT22;1475;51.454;7.150;2022-08-11T03:03:00;16.90;99.90
2931;DHT22;1475;51.454;7.150;2022-08-11T03:05:48;16.90;99.90
2931;DHT22;1475;51.454;7.150;2022-08-11T03:08:35;16.80;99.90
2931;DHT22;1475;51.454;7.150;2022-08-11T03:11:11;16.80;99.90
2931;DHT22;1475;51.454;7.150;2022-08-11T03:14:09;16.80;99.90
2931;DHT22;1475;51.454;7.150;2022-08-11T03:16:59;16.70;99.90
2931;DHT22;1475;51.454;7.150;2022-08-11T03:19:36;16.70;99.90
2931;DHT22;1475;51.454;7.150;2022-08-11T03:22:20;16.70;99.90
2931;DHT22;1475;51.454;7.150;2022-08-11T03:24:55;16.60;99.90
2931;DHT22;1475;51.454;7.150;2022-08-11T03:27:32;16.60;99.90
2931;DHT22;1475;51.454;7.150;2022-08-11T03:30:09;16.60;99.90
2931;DHT22;1475;51.454;7.150;2022-08-11T03:32:45;16.60;99.90
2931;DHT22;1475;51.454;7.150;2022-08-11T03:35:39;16.60;99.90
2931;DHT22;1475;51.454;7.150;2022-08-11T03:38:11;16.60;99.90
2931;DHT22;1475;51.454;7.150;2022-08-11T03:40:50;16.60;99.90
2931;DHT22;1475;51.454;7.150;2022-08-11T03:43:53;16.60;99.90
2931;DHT22;1475;51.454;7.150;2022-08-11T03:46:34;16.60;99.90
2931;DHT22;1475;51.454;7.150;2022-08-11T03:49:22;16.50;99.90
2931;DHT22;1475;51.454;7.150;2022-08-11T03:51:54;16.60;99.90
2931;DHT22;1475;51.454;7.150;2022-08-11T03:54:28;16.60;99.90
2931;DHT22;1475;51.454;7.150;2022-08-11T03:57:31;16.50;99.90
2931;DHT22;1475;51.454;7.150;2022-08-11T04:03:27;16.50;99.90
2931;DHT22;1475;51.454;7.150;2022-08-11T04:12:20;16.50;99.90
2931;DHT22;1475;51.454;7.150;2022-08-11T04:15:20;16.50;99.90
2931;DHT22;1475;51.454;7.150;2022-08-11T04:24:57;16.50;99.90
2931;DHT22;1475;51.454;7.150;2022-08-11T04:27:52;16.50;99.90
2931;DHT22;1475;51.454;7.150;2022-08-11T04:30:29;16.50;99.90
2931;DHT22;1475;51.454;7.150;2022-08-11T04:35:59;16.50;99.90
2931;DHT22;1475;51.454;7.150;2022-08-11T04:38:57;16.60;99.90
2931;DHT22;1475;51.454;7.150;2022-08-11T04:41:54;16.60;99.90
2931;DHT22;1475;51.454;7.150;2022-08-11T04:48:01;16.70;99.90
2931;DHT22;1475;51.454;7.150;2022-08-11T04:51:21;16.70;99.90
2931;DHT22;1475;51.454;7.150;2022-08-11T04:54:21;16.80;99.90
2931;DHT22;1475;51.454;7.150;2022-08-11T04:57:13;16.90;99.90
2931;DHT22;1475;51.454;7.150;2022-08-11T05:00:03;17.00;99.90
2931;DHT22;1475;51.454;7.150;2022-08-11T05:03:10;17.20;99.90
2931;DHT22;1475;51.454;7.150;2022-08-11T05:06:00;17.20;99.90
2931;DHT22;1475;51.454;7.150;2022-08-11T05:09:03;17.40;99.90
2931;DHT22;1475;51.454;7.150;2022-08-11T05:11:54;17.50;99.90
2931;DHT22;1475;51.454;7.150;2022-08-11T05:14:37;17.60;99.90
2931;DHT22;1475;51.454;7.150;2022-08-11T05:17:36;17.70;99.90
2931;DHT22;1475;51.454;7.150;2022-08-11T05:20:23;17.80;99.90
2931;DHT22;1475;51.454;7.150;2022-08-11T05:23:09;17.90;99.90
2931;DHT22;1475;51.454;7.150;2022-08-11T05:25:58;18.00;99.90
2931;DHT22;1475;51.454;7.150;2022-08-11T05:28:49;18.10;99.90
2931;DHT22;1475;51.454;7.150;2022-08-11T05:31:37;18.20;99.90
2931;DHT22;1475;51.454;7.150;2022-08-11T05:34:25;18.30;99.90
2931;DHT22;1475;51.454;7.150;2022-08-11T05:37:12;18.30;99.90
2931;DHT22;1475;51.454;7.150;2022-08-11T05:39:44;18.40;99.90
2931;DHT22;1475;51.454;7.150;2022-08-11T05:42:33;18.50;99.90
2931;DHT22;1475;51.454;7.150;2022-08-11T05:48:46;18.70;99.90
2931;DHT22;1475;51.454;7.150;2022-08-11T05:56:49;19.00;99.90
2931;DHT22;1475;51.454;7.150;2022-08-11T05:59:22;19.30;99.90
2931;DHT22;1475;51.454;7.150;2022-08-11T06:01:50;19.20;99.90
2931;DHT22;1475;51.454;7.150;2022-08-11T06:04:22;18.90;99.90
2931;DHT22;1475;51.454;7.150;2022-08-11T06:07:02;19.60;99.90
2931;DHT22;1475;51.454;7.150;2022-08-11T06:09:32;20.20;99.90
2931;DHT22;1475;51.454;7.150;2022-08-11T06:12:05;20.40;99.90
2931;DHT22;1475;51.454;7.150;2022-08-11T06:22:32;19.90;99.90
2931;DHT22;1475;51.454;7.150;2022-08-11T06:25:00;20.10;99.90
2931;DHT22;1475;51.454;7.150;2022-08-11T06:27:30;20.00;99.90
2931;DHT22;1475;51.454;7.150;2022-08-11T06:30:03;20.50;99.90
2931;DHT22;1475;51.454;7.150;2022-08-11T06:32:39;20.20;99.90
2931;DHT22;1475;51.454;7.150;2022-08-11T06:35:16;20.50;99.90
2931;DHT22;1475;51.454;7.150;2022-08-11T06:38:01;20.30;99.90
2931;DHT22;1475;51.454;7.150;2022-08-11T06:40:37;19.80;99.90
2931;DHT22;1475;51.454;7.150;2022-08-11T06:43:14;20.50;99.90
2931;DHT22;1475;51.454;7.150;2022-08-11T06:45:55;20.90;99.90
2931;DHT22;1475;51.454;7.150;2022-08-11T06:48:30;20.60;99.90
2931;DHT22;1475;51.454;7.150;2022-08-11T06:51:16;21.00;99.90
2931;DHT22;1475;51.454;7.150;2022-08-11T06:53:47;22.20;99.90
2931;DHT22;1475;51.454;7.150;2022-08-11T06:56:24;21.20;99.90
2931;DHT22;1475;51.454;7.150;2022-08-11T06:59:10;21.10;99.90
2931;DHT22;1475;51.454;7.150;2022-08-11T07:02:02;22.60;99.90
2931;DHT22;1475;51.454;7.150;2022-08-11T07:05:16;21.30;99.90
2931;DHT22;1475;51.454;7.150;2022-08-11T07:08:14;21.40;99.90
2931;DHT22;1475;51.454;7.150;2022-08-11T07:14:31;21.60;99.90
2931;DHT22;1475;51.454;7.150;2022-08-11T07:17:21;21.80;99.90
2931;DHT22;1475;51.454;7.150;2022-08-11T07:20:19;21.80;99.90
2931;DHT22;1475;51.454;7.150;2022-08-11T07:23:27;22.10;99.90
2931;DHT22;1475;51.454;7.150;2022-08-11T07:26:16;22.10;99.90
2931;DHT22;1475;51.454;7.150;2022-08-11T07:29:01;22.00;99.90
2931;DHT22;1475;51.454;7.150;2022-08-11T07:31:37;22.40;99.90
2931;DHT22;1475;51.454;7.150;2022-08-11T07:34:35;22.40;99.90
2931;DHT22;1475;51.454;7.150;2022-08-11T07:37:23;24.20;99.90
2931;DHT22;1475;51.454;7.150;2022-08-11T07:39:52;22.60;99.90
2931;DHT22;1475;51.454;7.150;2022-08-11T07:42:28;22.70;99.90
2931;DHT22;1475;51.454;7.150;2022-08-11T07:45:03;23.60;99.90
2931;DHT22;1475;51.454;7.150;2022-08-11T07:47:49;23.00;99.90
2931;DHT22;1475;51.454;7.150;2022-08-11T07:51:06;23.10;99.90
2931;DHT22;1475;51.454;7.150;2022-08-11T07:53:57;23.30;99.90
2931;DHT22;1475;51.454;7.150;2022-08-11T07:56:42;23.30;99.90
2931;DHT22;1475;51.454;7.150;2022-08-11T07:59:25;24.10;99.90
2931;DHT22;1475;51.454;7.150;2022-08-11T08:02:12;23.70;99.90
2931;DHT22;1475;51.454;7.150;2022-08-11T08:05:14;23.30;99.90
2931;DHT22;1475;51.454;7.150;2022-08-11T08:08:00;24.30;99.90
2931;DHT22;1475;51.454;7.150;2022-08-11T08:10:44;24.00;99.90
2931;DHT22;1475;51.454;7.150;2022-08-11T08:16:05;24.30;99.90
2931;DHT22;1475;51.454;7.150;2022-08-11T08:18:50;24.50;99.90
2931;DHT22;1475;51.454;7.150;2022-08-11T08:21:17;25.20;99.90
2931;DHT22;1475;51.454;7.150;2022-08-11T08:23:45;24.70;99.90
2931;DHT22;1475;51.454;7.150;2022-08-11T08:26:14;24.80;99.90
2931;DHT22;1475;51.454;7.150;2022-08-11T08:49:45;25.90;99.90
2931;DHT22;1475;51.454;7.150;2022-08-11T08:52:18;27.00;99.90
2931;DHT22;1475;51.454;7.150;2022-08-11T08:54:48;25.80;99.90
2931;DHT22;1475;51.454;7.150;2022-08-11T08:57:20;26.40;99.90
2931;DHT22;1475;51.454;7.150;2022-08-11T09:00:19;26.50;99.90
2931;DHT22;1475;51.454;7.150;2022-08-11T09:02:48;26.00;99.90
2931;DHT22;1475;51.454;7.150;2022-08-11T09:05:18;26.70;99.90
2931;DHT22;1475;51.454;7.150;2022-08-11T09:07:46;26.80;99.90
2931;DHT22;1475;51.454;7.150;2022-08-11T09:10:18;26.90;99.90
2931;DHT22;1475;51.454;7.150;2022-08-11T09:12:46;27.00;99.90
2931;DHT22;1475;51.454;7.150;2022-08-11T09:15:13;27.20;99.90
2931;DHT22;1475;51.454;7.150;2022-08-11T09:17:46;27.30;99.80
2931;DHT22;1475;51.454;7.150;2022-08-11T09:20:21;27.40;98.30
2931;DHT22;1475;51.454;7.150;2022-08-11T09:22:50;27.50;96.90
2931;DHT22;1475;51.454;7.150;2022-08-11T09:25:35;27.70;95.60
2931;DHT22;1475;51.454;7.150;2022-08-11T09:28:21;27.80;94.70
2931;DHT22;1475;51.454;7.150;2022-08-11T09:31:11;27.90;95.20
2931;DHT22;1475;51.454;7.150;2022-08-11T09:40:47;28.20;88.60
2931;DHT22;1475;51.454;7.150;2022-08-11T10:24:43;29.70;57.10
2931;DHT22;1475;51.454;7.150;2022-08-11T10:27:28;29.60;52.90
2931;DHT22;1475;51.454;7.150;2022-08-11T10:29:55;29.50;51.50
2931;DHT22;1475;51.454;7.150;2022-08-11T10:32:40;29.40;53.80
2931;DHT22;1475;51.454;7.150;2022-08-11T10:35:25;29.50;53.70
2931;DHT22;1475;51.454;7.150;2022-08-11T10:37:56;29.60;52.50
2931;DHT22;1475;51.454;7.150;2022-08-11T10:40:28;29.70;48.80
2931;DHT22;1475;51.454;7.150;2022-08-11T10:45:41;29.80;53.20
2931;DHT22;1475;51.454;7.150;2022-08-11T10:48:27;29.90;47.90
2931;DHT22;1475;51.454;7.150;2022-08-11T10:51:05;29.80;47.70
2931;DHT22;1475;51.454;7.150;2022-08-11T10:53:42;30.00;50.30
2931;DHT22;1475;51.454;7.150;2022-08-11T10:56:30;29.80;48.90
2931;DHT22;1475;51.454;7.150;2022-08-11T10:59:17;30.60;48.50
2931;DHT22;1475;51.454;7.150;2022-08-11T11:23:40;30.90;45.60
2931;DHT22;1475;51.454;7.150;2022-08-11T11:26:30;31.20;45.80
2931;DHT22;1475;51.454;7.150;2022-08-11T11:39:42;31.90;40.20
2931;DHT22;1475;51.454;7.150;2022-08-11T11:53:10;37.30;23.10
2931;DHT22;1475;51.454;7.150;2022-08-11T11:55:43;38.20;17.70
2931;DHT22;1475;51.454;7.150;2022-08-11T11:58:11;39.00;14.30
2931;DHT22;1475;51.454;7.150;2022-08-11T12:01:08;39.50;11.20
2931;DHT22;1475;51.454;7.150;2022-08-11T12:03:46;40.00;8.40
2931;DHT22;1475;51.454;7.150;2022-08-11T12:06:16;40.20;4.80
2931;DHT22;1475;51.454;7.150;2022-08-11T12:08:44;40.90;4.50
2931;DHT22;1475;51.454;7.150;2022-08-11T12:11:20;41.70;3.30
2931;DHT22;1475;51.454;7.150;2022-08-11T12:14:06;42.00;1.00
2931;DHT22;1475;51.454;7.150;2022-08-11T12:16:35;42.50;1.00
2931;DHT22;1475;51.454;7.150;2022-08-11T12:19:04;42.60;1.00
2931;DHT22;1475;51.454;7.150;2022-08-11T12:21:34;42.90;1.00
2931;DHT22;1475;51.454;7.150;2022-08-11T12:24:02;43.10;1.00
2931;DHT22;1475;51.454;7.150;2022-08-11T12:26:51;43.40;1.00
2931;DHT22;1475;51.454;7.150;2022-08-11T12:29:38;43.60;1.00
2931;DHT22;1475;51.454;7.150;2022-08-11T12:32:08;43.80;1.00
2931;DHT22;1475;51.454;7.150;2022-08-11T12:39:50;44.60;1.00
2931;DHT22;1475;51.454;7.150;2022-08-11T12:42:36;45.00;1.00
2931;DHT22;1475;51.454;7.150;2022-08-11T12:45:37;45.00;1.00
2931;DHT22;1475;51.454;7.150;2022-08-11T12:48:09;45.10;1.00
2931;DHT22;1475;51.454;7.150;2022-08-11T12:50:57;45.00;1.00
2931;DHT22;1475;51.454;7.150;2022-08-11T12:53:52;45.10;1.00
2931;DHT22;1475;51.454;7.150;2022-08-11T12:56:21;45.10;1.00
2931;DHT22;1475;51.454;7.150;2022-08-11T12:59:07;45.20;1.00
2931;DHT22;1475;51.454;7.150;2022-08-11T13:01:52;45.30;1.00
2931;DHT22;1475;51.454;7.150;2022-08-11T13:04:38;45.40;1.00
2931;DHT22;1475;51.454;7.150;2022-08-11T13:07:31;45.90;1.00
2931;DHT22;1475;51.454;7.150;2022-08-11T13:10:05;46.20;1.00
2931;DHT22;1475;51.454;7.150;2022-08-11T13:12:34;46.40;1.00
2931;DHT22;1475;51.454;7.150;2022-08-11T13:15:16;46.50;1.00
2931;DHT22;1475;51.454;7.150;2022-08-11T13:17:44;46.70;1.00
2931;DHT22;1475;51.454;7.150;2022-08-11T13:20:15;46.80;1.00
2931;DHT22;1475;51.454;7.150;2022-08-11T13:22:47;47.10;1.00
2931;DHT22;1475;51.454;7.150;2022-08-11T13:25:15;47.00;1.00
2931;DHT22;1475;51.454;7.150;2022-08-11T13:27:43;47.40;1.00
2931;DHT22;1475;51.454;7.150;2022-08-11T13:30:12;48.00;1.00
2931;DHT22;1475;51.454;7.150;2022-08-11T13:33:00;48.30;1.00
2931;DHT22;1475;51.454;7.150;2022-08-11T13:35:28;48.00;1.00
2931;DHT22;1475;51.454;7.150;2022-08-11T13:37:56;47.80;1.00
2931;DHT22;1475;51.454;7.150;2022-08-11T13:40:25;47.50;1.00
2931;DHT22;1475;51.454;7.150;2022-08-11T13:42:52;47.70;1.00
2931;DHT22;1475;51.454;7.150;2022-08-11T13:45:21;48.00;1.00
2931;DHT22;1475;51.454;7.150;2022-08-11T13:47:51;48.00;1.00
2931;DHT22;1475;51.454;7.150;2022-08-11T13:50:23;48.10;1.00
2931;DHT22;1475;51.454;7.150;2022-08-11T13:53:22;47.20;1.00
2931;DHT22;1475;51.454;7.150;2022-08-11T13:59:44;47.70;1.00
2931;DHT22;1475;51.454;7.150;2022-08-11T14:02:37;47.80;1.00
2931;DHT22;1475;51.454;7.150;2022-08-11T14:05:19;48.00;1.00
2931;DHT22;1475;51.454;7.150;2022-08-11T14:07:52;48.50;1.00
2931;DHT22;1475;51.454;7.150;2022-08-11T14:10:43;48.70;1.00
2931;DHT22;1475;51.454;7.150;2022-08-11T14:13:12;49.40;1.00
2931;DHT22;1475;51.454;7.150;2022-08-11T14:16:02;49.60;1.00
2931;DHT22;1475;51.454;7.150;2022-08-11T14:18:32;50.10;1.00
2931;DHT22;1475;51.454;7.150;2022-08-11T14:21:10;50.30;1.00
2931;DHT22;1475;51.454;7.150;2022-08-11T14:23:57;49.60;1.00
2931;DHT22;1475;51.454;7.150;2022-08-11T14:26:25;49.00;1.00
2931;DHT22;1475;51.454;7.150;2022-08-11T14:28:55;48.80;1.00
2931;DHT22;1475;51.454;7.150;2022-08-11T14:36:33;48.50;1.00
2931;DHT22;1475;51.454;7.150;2022-08-11T14:39:08;48.40;1.00
2931;DHT22;1475;51.454;7.150;2022-08-11T14:42:02;48.70;1.00
2931;DHT22;1475;51.454;7.150;2022-08-11T14:45:13;49.00;1.00
2931;DHT22;1475;51.454;7.150;2022-08-11T14:48:02;49.60;1.00
2931;DHT22;1475;51.454;7.150;2022-08-11T14:50:32;50.20;1.00
2931;DHT22;1475;51.454;7.150;2022-08-11T14:53:07;50.40;1.00
2931;DHT22;1475;51.454;7.150;2022-08-11T14:56:17;50.20;1.00
2931;DHT22;1475;51.454;7.150;2022-08-11T14:59:26;50.20;1.00
2931;DHT22;1475;51.454;7.150;2022-08-11T15:01:55;50.70;1.00
2931;DHT22;1475;51.454;7.150;2022-08-11T15:04:40;50.80;1.00
2931;DHT22;1475;51.454;7.150;2022-08-11T15:07:07;50.40;1.00
2931;DHT22;1475;51.454;7.150;2022-08-11T15:14:53;49.30;1.00
2931;DHT22;1475;51.454;7.150;2022-08-11T15:17:39;49.30;1.00
2931;DHT22;1475;51.454;7.150;2022-08-11T15:20:08;49.60;1.00
2931;DHT22;1475;51.454;7.150;2022-08-11T15:22:57;49.90;1.00
2931;DHT22;1475;51.454;7.150;2022-08-11T15:25:45;50.50;1.00
2931;DHT22;1475;51.454;7.150;2022-08-11T15:28:14;50.20;1.00
2931;DHT22;1475;51.454;7.150;2022-08-11T15:31:02;50.40;1.00
2931;DHT22;1475;51.454;7.150;2022-08-11T15:34:04;50.40;1.00
2931;DHT22;1475;51.454;7.150;2022-08-11T15:36:50;50.80;1.00
2931;DHT22;1475;51.454;7.150;2022-08-11T15:39:44;50.20;1.00
2931;DHT22;1475;51.454;7.150;2022-08-11T15:42:39;49.90;1.00
2931;DHT22;1475;51.454;7.150;2022-08-11T15:45:24;49.50;1.00
2931;DHT22;1475;51.454;7.150;2022-08-11T15:48:14;49.60;1.00
2931;DHT22;1475;51.454;7.150;2022-08-11T15:50:47;49.90;1.00
2931;DHT22;1475;51.454;7.150;2022-08-11T15:53:24;50.30;1.00
2931;DHT22;1475;51.454;7.150;2022-08-11T15:55:53;50.40;1.00
2931;DHT22;1475;51.454;7.150;2022-08-11T15:58:22;50.00;1.00
2931;DHT22;1475;51.454;7.150;2022-08-11T16:01:07;49.50;1.00
2931;DHT22;1475;51.454;7.150;2022-08-11T16:03:57;49.50;1.00
2931;DHT22;1475;51.454;7.150;2022-08-11T16:06:42;49.10;1.00
2931;DHT22;1475;51.454;7.150;2022-08-11T16:09:13;49.20;1.00
2931;DHT22;1475;51.454;7.150;2022-08-11T16:11:45;49.40;1.00
2931;DHT22;1475;51.454;7.150;2022-08-11T16:14:13;49.30;1.00
2931;DHT22;1475;51.454;7.150;2022-08-11T16:17:00;49.40;1.00
2931;DHT22;1475;51.454;7.150;2022-08-11T16:19:30;49.40;1.00
2931;DHT22;1475;51.454;7.150;2022-08-11T16:22:01;49.20;1.00
2931;DHT22;1475;51.454;7.150;2022-08-11T16:24:32;48.40;1.00
2931;DHT22;1475;51.454;7.150;2022-08-11T16:27:02;48.10;1.00
2931;DHT22;1475;51.454;7.150;2022-08-11T16:29:32;47.50;1.00
2931;DHT22;1475;51.454;7.150;2022-08-11T16:32:07;47.50;1.00
2931;DHT22;1475;51.454;7.150;2022-08-11T16:34:49;47.10;1.00
2931;DHT22;1475;51.454;7.150;2022-08-11T16:37:35;46.70;1.00
2931;DHT22;1475;51.454;7.150;2022-08-11T16:40:20;46.20;1.00
2931;DHT22;1475;51.454;7.150;2022-08-11T16:42:49;45.20;1.00
2931;DHT22;1475;51.454;7.150;2022-08-11T16:45:35;44.80;1.00
2931;DHT22;1475;51.454;7.150;2022-08-11T16:48:21;44.40;1.00
2931;DHT22;1475;51.454;7.150;2022-08-11T16:50:50;43.70;1.00
2931;DHT22;1475;51.454;7.150;2022-08-11T16:53:17;43.70;1.00
2931;DHT22;1475;51.454;7.150;2022-08-11T16:55:46;44.00;1.00
2931;DHT22;1475;51.454;7.150;2022-08-11T16:58:14;43.80;1.00
2931;DHT22;1475;51.454;7.150;2022-08-11T17:01:00;43.50;1.00
2931;DHT22;1475;51.454;7.150;2022-08-11T17:03:29;42.90;1.00
2931;DHT22;1475;51.454;7.150;2022-08-11T17:06:18;42.60;1.00
2931;DHT22;1475;51.454;7.150;2022-08-11T17:09:03;42.30;1.00
2931;DHT22;1475;51.454;7.150;2022-08-11T17:11:51;42.10;1.00
2931;DHT22;1475;51.454;7.150;2022-08-11T17:15:12;41.90;1.00
2931;DHT22;1475;51.454;7.150;2022-08-11T17:17:58;41.30;1.00
2931;DHT22;1475;51.454;7.150;2022-08-11T17:20:26;40.90;1.00
2931;DHT22;1475;51.454;7.150;2022-08-11T17:22:56;40.60;1.00
2931;DHT22;1475;51.454;7.150;2022-08-11T17:25:42;40.30;1.00
2931;DHT22;1475;51.454;7.150;2022-08-11T17:28:14;39.90;1.00
2931;DHT22;1475;51.454;7.150;2022-08-11T17:30:43;39.60;1.00
2931;DHT22;1475;51.454;7.150;2022-08-11T17:33:28;39.50;1.00
2931;DHT22;1475;51.454;7.150;2022-08-11T17:36:15;39.50;1.00
2931;DHT22;1475;51.454;7.150;2022-08-11T17:38:46;39.40;1.00
2931;DHT22;1475;51.454;7.150;2022-08-11T17:41:15;39.20;1.00
2931;DHT22;1475;51.454;7.150;2022-08-11T17:44:01;38.60;1.00
2931;DHT22;1475;51.454;7.150;2022-08-11T17:46:46;38.40;1.00
2931;DHT22;1475;51.454;7.150;2022-08-11T17:49:31;38.30;1.00
2931;DHT22;1475;51.454;7.150;2022-08-11T17:52:02;38.30;1.00
2931;DHT22;1475;51.454;7.150;2022-08-11T17:54:49;38.60;1.00
2931;DHT22;1475;51.454;7.150;2022-08-11T17:57:35;38.90;1.00
2931;DHT22;1475;51.454;7.150;2022-08-11T18:00:20;39.10;1.00
2931;DHT22;1475;51.454;7.150;2022-08-11T18:02:50;39.40;1.00
2931;DHT22;1475;51.454;7.150;2022-08-11T18:05:37;39.50;1.00
2931;DHT22;1475;51.454;7.150;2022-08-11T18:08:07;39.70;1.00
2931;DHT22;1475;51.454;7.150;2022-08-11T18:10:57;39.90;1.00
2931;DHT22;1475;51.454;7.150;2022-08-11T18:13:43;39.60;1.00
2931;DHT22;1475;51.454;7.150;2022-08-11T18:18:57;38.80;1.00
2931;DHT22;1475;51.454;7.150;2022-08-11T18:21:43;38.20;1.00
2931;DHT22;1475;51.454;7.150;2022-08-11T18:24:32;37.70;1.00
2931;DHT22;1475;51.454;7.150;2022-08-11T18:27:24;36.70;1.00
2931;DHT22;1475;51.454;7.150;2022-08-11T18:30:10;35.70;1.00
2931;DHT22;1475;51.454;7.150;2022-08-11T18:32:59;34.70;1.00
2931;DHT22;1475;51.454;7.150;2022-08-11T18:35:49;33.80;1.00
2931;DHT22;1475;51.454;7.150;2022-08-11T18:38:37;33.10;1.00
2931;DHT22;1475;51.454;7.150;2022-08-11T18:41:23;32.40;1.00
2931;DHT22;1475;51.454;7.150;2022-08-11T18:44:12;31.90;1.00
2931;DHT22;1475;51.454;7.150;2022-08-11T18:46:58;31.40;1.00
2931;DHT22;1475;51.454;7.150;2022-08-11T18:49:45;30.90;1.00
2931;DHT22;1475;51.454;7.150;2022-08-11T18:52:31;30.40;1.00
2931;DHT22;1475;51.454;7.150;2022-08-11T18:55:18;30.10;1.00
2931;DHT22;1475;51.454;7.150;2022-08-11T18:58:06;29.80;1.00
2931;DHT22;1475;51.454;7.150;2022-08-11T19:00:55;29.50;1.00
2931;DHT22;1475;51.454;7.150;2022-08-11T19:03:40;29.20;1.00
2931;DHT22;1475;51.454;7.150;2022-08-11T19:06:26;28.90;1.00
2931;DHT22;1475;51.454;7.150;2022-08-11T19:09:13;28.70;1.00
2931;DHT22;1475;51.454;7.150;2022-08-11T19:12:00;28.40;3.20
2931;DHT22;1475;51.454;7.150;2022-08-11T19:14:48;28.20;6.20
2931;DHT22;1475;51.454;7.150;2022-08-11T19:17:35;28.00;10.00
2931;DHT22;1475;51.454;7.150;2022-08-11T19:20:23;27.80;12.50
2931;DHT22;1475;51.454;7.150;2022-08-11T19:23:09;27.60;16.80
2931;DHT22;1475;51.454;7.150;2022-08-11T19:25:55;27.40;23.10
2931;DHT22;1475;51.454;7.150;2022-08-11T19:28:42;27.20;24.60
2931;DHT22;1475;51.454;7.150;2022-08-11T19:31:28;27.00;27.30
2931;DHT22;1475;51.454;7.150;2022-08-11T19:34:17;26.90;28.70
2931;DHT22;1475;51.454;7.150;2022-08-11T19:37:04;26.70;35.40
2931;DHT22;1475;51.454;7.150;2022-08-11T19:39:50;26.60;41.00
2931;DHT22;1475;51.454;7.150;2022-08-11T19:42:36;26.40;42.60
2931;DHT22;1475;51.454;7.150;2022-08-11T19:45:20;26.30;46.90
2931;DHT22;1475;51.454;7.150;2022-08-11T19:48:05;26.10;48.60
2931;DHT22;1475;51.454;7.150;2022-08-11T19:50:52;26.00;53.10
2931;DHT22;1475;51.454;7.150;2022-08-11T19:53:38;25.90;58.50
2931;DHT22;1475;51.454;7.150;2022-08-11T19:56:24;25.70;59.30
2931;DHT22;1475;51.454;7.150;2022-08-11T19:59:09;25.60;60.60
2931;DHT22;1475;51.454;7.150;2022-08-11T20:01:53;25.50;61.30
2931;DHT22;1475;51.454;7.150;2022-08-11T20:04:37;25.30;61.30
2931;DHT22;1475;51.454;7.150;2022-08-11T20:07:24;25.20;66.20
2931;DHT22;1475;51.454;7.150;2022-08-11T20:10:09;25.10;68.80
2931;DHT22;1475;51.454;7.150;2022-08-11T20:12:55;24.90;70.90
2931;DHT22;1475;51.454;7.150;2022-08-11T20:15:40;24.90;71.90
2931;DHT22;1475;51.454;7.150;2022-08-11T20:18:25;24.70;75.20
2931;DHT22;1475;51.454;7.150;2022-08-11T20:21:12;24.60;78.20
2931;DHT22;1475;51.454;7.150;2022-08-11T20:24:00;24.50;80.40
2931;DHT22;1475;51.454;7.150;2022-08-11T20:26:46;24.40;83.00
2931;DHT22;1475;51.454;7.150;2022-08-11T20:29:32;24.30;84.10
2931;DHT22;1475;51.454;7.150;2022-08-11T20:32:19;24.20;85.70
2931;DHT22;1475;51.454;7.150;2022-08-11T20:35:04;24.10;87.60
2931;DHT22;1475;51.454;7.150;2022-08-11T20:37:52;23.90;89.70
2931;DHT22;1475;51.454;7.150;2022-08-11T20:40:43;23.90;90.70
2931;DHT22;1475;51.454;7.150;2022-08-11T20:43:30;23.70;92.20
2931;DHT22;1475;51.454;7.150;2022-08-11T20:46:17;23.70;91.80
2931;DHT22;1475;51.454;7.150;2022-08-11T20:49:04;23.60;93.10
2931;DHT22;1475;51.454;7.150;2022-08-11T20:51:52;23.50;93.50
2931;DHT22;1475;51.454;7.150;2022-08-11T20:54:37;23.40;94.80
2931;DHT22;1475;51.454;7.150;2022-08-11T20:57:24;23.30;94.70
2931;DHT22;1475;51.454;7.150;2022-08-11T21:00:10;23.30;95.60
2931;DHT22;1475;51.454;7.150;2022-08-11T21:02:54;23.20;96.30
2931;DHT22;1475;51.454;7.150;2022-08-11T21:05:40;23.10;95.90
2931;DHT22;1475;51.454;7.150;2022-08-11T21:08:29;23.00;96.10
2931;DHT22;1475;51.454;7.150;2022-08-11T21:11:15;22.90;97.10